Time;durP1;ratioP1;P1;durP2;ratioP2;P2;SDS_P1;SDS_P2;PMS_P1;PMS_P2;Temp;Humidity;BMP_temperature;BMP_pressure;BME280_temperature;BME280_humidity;BME280_pressure;Samples;Min_cycle;Max_cycle;Signal;HPM_P1;HPM_P2
2023/04/25 00:01:49;;;;;;;20.27;5.20;;;;;;;;;;5092053;28;20036;-60
2023/04/25 00:04:15;;;;;;;13.68;4.82;;;;;;;;;;5080961;28;20070;-60
2023/04/25 00:06:41;;;;;;;17.15;4.85;;;;;;;;;;5092452;28;20130;-60
2023/04/25 00:09:09;;;;;;;12.65;5.22;;;;;;;;;;5092163;28;20059;-60
2023/04/25 00:11:36;;;;;;;12.38;4.90;;;;;;;;;;5108013;28;20051;-60
2023/04/25 00:14:03;;;;;;;13.65;5.05;;;;;;;;;;5103763;28;20040;-60
2023/04/25 00:16:33;;;;;;;14.32;4.90;;;;;;;;;;5097671;28;20437;-60
2023/04/25 00:18:59;;;;;;;6.97;3.47;;;;;;;;;;5103657;28;20043;-61
2023/04/25 00:21:25;;;;;;;16.65;5.45;;;;;;;;;;5099250;28;20517;-61
2023/04/25 00:23:53;;;;;;;14.05;4.60;;;;;;;;;;5075424;28;20556;-60
2023/04/25 00:26:20;;;;;;;11.93;4.28;;;;;;;;;;5095707;28;20404;-61
2023/04/25 00:28:47;;;;;;;15.45;4.45;;;;;;;;;;5102305;28;20040;-60
2023/04/25 00:31:13;;;;;;;9.82;4.47;;;;;;;;;;5088896;28;20036;-60
2023/04/25 00:33:39;;;;;;;15.65;4.97;;;;;;;;;;5097170;28;20111;-61
2023/04/25 00:36:06;;;;;;;33.22;6.15;;;;;;;;;;5096903;28;20421;-61
2023/04/25 00:38:32;;;;;;;13.50;4.45;;;;;;;;;;5090056;28;20048;-60
2023/04/25 00:40:58;;;;;;;14.57;5.82;;;;;;;;;;5100551;28;20050;-60
2023/04/25 00:43:26;;;;;;;16.95;4.57;;;;;;;;;;5092534;28;20071;-60
2023/04/25 00:45:53;;;;;;;12.82;4.38;;;;;;;;;;5089870;28;20119;-60
2023/04/25 00:48:19;;;;;;;17.08;4.40;;;;;;;;;;5092503;28;20499;-60
2023/04/25 00:50:49;;;;;;;12.93;5.03;;;;;;;;;;5094500;28;20031;-60
2023/04/25 00:53:15;;;;;;;14.20;4.80;;;;;;;;;;5098064;28;20032;-60
2023/04/25 00:55:41;;;;;;;14.55;4.75;;;;;;;;;;5094480;28;20265;-60
2023/04/25 00:58:07;;;;;;;13.15;4.10;;;;;;;;;;5089917;28;20043;-60
2023/04/25 01:00:33;;;;;;;14.13;4.32;;;;;;;;;;5089377;28;20083;-60
2023/04/25 01:03:02;;;;;;;20.42;4.97;;;;;;;;;;5098392;28;20036;-60
2023/04/25 01:05:28;;;;;;;21.67;5.15;;;;;;;;;;5098750;28;20043;-60
2023/04/25 01:07:54;;;;;;;8.63;4.18;;;;;;;;;;5099188;28;20046;-60
2023/04/25 01:10:21;;;;;;;13.48;3.55;;;;;;;;;;5090807;28;20028;-60
2023/04/25 01:12:47;;;;;;;12.18;3.53;;;;;;;;;;5100248;28;20048;-60
2023/04/25 01:15:13;;;;;;;9.20;3.90;;;;;;;;;;5089283;28;20047;-60
2023/04/25 01:17:41;;;;;;;8.38;3.03;;;;;;;;;;5101171;28;20115;-60
2023/04/25 01:20:09;;;;;;;10.75;3.88;;;;;;;;;;5098433;28;20123;-60
2023/04/25 01:22:35;;;;;;;9.40;4.13;;;;;;;;;;5094448;28;20425;-60
2023/04/25 01:25:02;;;;;;;10.45;3.38;;;;;;;;;;5092400;28;20068;-60
2023/04/25 01:27:28;;;;;;;13.25;4.93;;;;;;;;;;5094658;28;20100;-61
2023/04/25 01:29:55;;;;;;;17.25;3.33;;;;;;;;;;5092977;28;20048;-59
2023/04/25 01:32:23;;;;;;;15.68;3.90;;;;;;;;;;5103735;28;20036;-58
2023/04/25 01:34:49;;;;;;;8.75;3.20;;;;;;;;;;5097173;28;20043;-59
2023/04/25 01:37:15;;;;;;;15.90;3.08;;;;;;;;;;5099924;28;20498;-59
2023/04/25 01:39:41;;;;;;;12.55;2.90;;;;;;;;;;5093999;28;20527;-59
2023/04/25 01:42:08;;;;;;;9.00;2.85;;;;;;;;;;5092757;28;20405;-59
2023/04/25 01:44:34;;;;;;;8.27;3.15;;;;;;;;;;5092327;28;20409;-60
2023/04/25 01:47:00;;;;;;;12.70;3.72;;;;;;;;;;5104558;28;20047;-59
2023/04/25 01:49:26;;;;;;;6.78;3.55;;;;;;;;;;5098231;28;20036;-59
2023/04/25 01:51:52;;;;;;;8.85;2.78;;;;;;;;;;5100707;28;20044;-60
2023/04/25 01:54:19;;;;;;;8.00;3.28;;;;;;;;;;5097335;28;20119;-60
2023/04/25 01:56:50;;;;;;;11.43;3.50;;;;;;;;;;5092127;28;20097;-61
2023/04/25 01:59:21;;;;;;;11.73;4.38;;;;;;;;;;5091845;28;20032;-60
2023/04/25 02:01:47;;;;;;;8.95;3.33;;;;;;;;;;5095880;28;20051;-60
2023/04/25 02:04:13;;;;;;;12.13;3.85;;;;;;;;;;5092480;28;20040;-60
2023/04/25 02:06:40;;;;;;;8.50;3.47;;;;;;;;;;5096262;28;20073;-60
2023/04/25 02:09:06;;;;;;;6.50;2.95;;;;;;;;;;5102363;28;20046;-60
2023/04/25 02:11:32;;;;;;;6.00;3.22;;;;;;;;;;5096826;28;20044;-61
2023/04/25 02:13:58;;;;;;;10.00;3.22;;;;;;;;;;5092112;28;20036;-60
2023/04/25 02:16:25;;;;;;;9.20;3.10;;;;;;;;;;5095170;28;20405;-60
2023/04/25 02:18:52;;;;;;;11.73;3.42;;;;;;;;;;5107053;28;20075;-60
2023/04/25 02:21:18;;;;;;;11.88;3.38;;;;;;;;;;5100119;28;20058;-60
2023/04/25 02:23:48;;;;;;;7.57;2.92;;;;;;;;;;5091903;28;20050;-60
2023/04/25 02:26:14;;;;;;;15.63;3.47;;;;;;;;;;5094415;28;20040;-60
2023/04/25 02:28:41;;;;;;;11.65;3.28;;;;;;;;;;5091822;28;20032;-60
2023/04/25 02:31:07;;;;;;;7.15;3.15;;;;;;;;;;5096738;28;20132;-60
2023/04/25 02:33:33;;;;;;;7.13;2.42;;;;;;;;;;5096664;28;20102;-60
2023/04/25 02:35:59;;;;;;;9.65;2.70;;;;;;;;;;5092465;28;20044;-60
2023/04/25 02:38:25;;;;;;;4.30;2.22;;;;;;;;;;5091944;28;20169;-60
2023/04/25 02:40:51;;;;;;;8.32;1.80;;;;;;;;;;5102017;28;20096;-60
2023/04/25 02:43:18;;;;;;;9.45;2.30;;;;;;;;;;5094612;28;20056;-60
2023/04/25 02:45:44;;;;;;;4.53;2.08;;;;;;;;;;5093366;28;20500;-61
2023/04/25 02:48:10;;;;;;;10.02;1.83;;;;;;;;;;5102494;28;20040;-60
2023/04/25 02:50:36;;;;;;;6.78;2.08;;;;;;;;;;5093054;28;20036;-60
2023/04/25 02:53:02;;;;;;;8.10;2.28;;;;;;;;;;5097130;28;20040;-61
2023/04/25 02:55:28;;;;;;;4.55;2.10;;;;;;;;;;5093549;28;20042;-60
2023/04/25 02:57:57;;;;;;;4.68;1.67;;;;;;;;;;5099870;28;20032;-60
2023/04/25 03:00:23;;;;;;;13.00;2.15;;;;;;;;;;5103661;28;20369;-60
2023/04/25 03:02:50;;;;;;;6.95;2.10;;;;;;;;;;5090283;28;20131;-60
2023/04/25 03:05:17;;;;;;;3.88;2.20;;;;;;;;;;5096717;28;20071;-60
2023/04/25 03:07:43;;;;;;;6.47;2.13;;;;;;;;;;5093180;28;20036;-60
2023/04/25 03:10:10;;;;;;;12.40;2.13;;;;;;;;;;5093587;28;20078;-60
2023/04/25 03:12:36;;;;;;;9.40;3.08;;;;;;;;;;5091732;28;20032;-60
2023/04/25 03:15:03;;;;;;;7.13;2.22;;;;;;;;;;5089629;28;20047;-60
2023/04/25 03:17:29;;;;;;;5.60;2.45;;;;;;;;;;5098521;28;20036;-60
2023/04/25 03:19:56;;;;;;;6.30;2.72;;;;;;;;;;5096249;28;20083;-60
2023/04/25 03:22:22;;;;;;;13.18;3.35;;;;;;;;;;5096012;28;20046;-60
2023/04/25 03:24:48;;;;;;;11.18;3.05;;;;;;;;;;5094352;28;20044;-60
2023/04/25 03:27:15;;;;;;;9.32;2.75;;;;;;;;;;5095806;28;20530;-60
2023/04/25 03:29:41;;;;;;;10.13;2.75;;;;;;;;;;5090002;28;20047;-60
2023/04/25 03:32:07;;;;;;;8.40;3.00;;;;;;;;;;5098236;28;20028;-59
2023/04/25 03:34:33;;;;;;;10.55;2.72;;;;;;;;;;5090393;28;20088;-60
2023/04/25 03:37:00;;;;;;;8.57;2.45;;;;;;;;;;5098789;28;20103;-60
2023/04/25 03:39:26;;;;;;;7.28;2.60;;;;;;;;;;5105032;28;20036;-61
2023/04/25 03:41:52;;;;;;;7.28;3.17;;;;;;;;;;5091066;28;20119;-60
2023/04/25 03:44:18;;;;;;;11.18;3.13;;;;;;;;;;5097787;28;20044;-59
2023/04/25 03:46:44;;;;;;;10.13;4.13;;;;;;;;;;5091558;28;20086;-60
2023/04/25 03:49:11;;;;;;;8.57;3.08;;;;;;;;;;5093966;28;20531;-60
2023/04/25 03:51:37;;;;;;;7.30;2.97;;;;;;;;;;5108561;28;20039;-60
2023/04/25 03:54:03;;;;;;;6.80;2.65;;;;;;;;;;5090718;28;20043;-60
2023/04/25 03:56:29;;;;;;;9.90;3.42;;;;;;;;;;5091898;28;20165;-60
2023/04/25 03:58:55;;;;;;;11.93;2.90;;;;;;;;;;5093187;28;20501;-60
2023/04/25 04:01:21;;;;;;;9.07;3.45;;;;;;;;;;5099406;28;20036;-60
2023/04/25 04:03:47;;;;;;;13.70;3.55;;;;;;;;;;5094489;28;20038;-60
2023/04/25 04:06:14;;;;;;;11.80;3.28;;;;;;;;;;5106249;28;20460;-60
2023/04/25 04:08:41;;;;;;;11.73;3.13;;;;;;;;;;5098453;28;20083;-60
2023/04/25 04:11:07;;;;;;;8.70;2.70;;;;;;;;;;5092990;28;20044;-60
2023/04/25 04:13:33;;;;;;;8.55;2.72;;;;;;;;;;5090020;28;20040;-60
2023/04/25 04:15:59;;;;;;;9.52;3.13;;;;;;;;;;5090474;28;20039;-61
2023/04/25 04:18:25;;;;;;;8.93;3.03;;;;;;;;;;5104383;28;20182;-60
2023/04/25 04:20:52;;;;;;;9.80;2.80;;;;;;;;;;5101357;28;20047;-60
2023/04/25 04:23:20;;;;;;;13.68;3.15;;;;;;;;;;5103753;28;20127;-60
2023/04/25 04:25:47;;;;;;;7.90;2.65;;;;;;;;;;5102461;28;20112;-60
2023/04/25 04:28:13;;;;;;;9.10;3.30;;;;;;;;;;5091961;28;20451;-60
2023/04/25 04:30:41;;;;;;;9.00;2.65;;;;;;;;;;5098657;28;20122;-60
2023/04/25 04:33:07;;;;;;;10.52;3.13;;;;;;;;;;5094425;28;20096;-60
2023/04/25 04:35:33;;;;;;;9.15;3.15;;;;;;;;;;5095214;28;20028;-60
2023/04/25 04:37:59;;;;;;;10.00;2.88;;;;;;;;;;5094540;28;20059;-59
2023/04/25 04:40:25;;;;;;;12.70;3.17;;;;;;;;;;5090674;28;20051;-60
2023/04/25 04:42:53;;;;;;;10.93;3.20;;;;;;;;;;5090857;28;20067;-59
2023/04/25 04:45:20;;;;;;;9.02;3.15;;;;;;;;;;5089430;28;20056;-60
2023/04/25 04:47:46;;;;;;;8.43;2.92;;;;;;;;;;5099117;28;20047;-60
2023/04/25 04:50:12;;;;;;;11.90;2.85;;;;;;;;;;5089687;28;20489;-60
2023/04/25 04:52:39;;;;;;;7.70;2.58;;;;;;;;;;5094616;28;20040;-60
2023/04/25 04:55:06;;;;;;;8.93;2.42;;;;;;;;;;5089144;28;20048;-60
2023/04/25 04:57:32;;;;;;;10.60;3.17;;;;;;;;;;5101467;28;20050;-60
2023/04/25 04:59:59;;;;;;;9.55;2.92;;;;;;;;;;5089607;28;20040;-60
2023/04/25 05:02:25;;;;;;;8.05;2.50;;;;;;;;;;5095674;28;20092;-60
2023/04/25 05:04:52;;;;;;;8.38;3.00;;;;;;;;;;5100162;28;20035;-60
2023/04/25 05:07:18;;;;;;;7.45;2.55;;;;;;;;;;5089964;28;20119;-60
2023/04/25 05:09:44;;;;;;;8.43;3.10;;;;;;;;;;5093111;28;20039;-60
2023/04/25 05:12:11;;;;;;;6.72;2.33;;;;;;;;;;5089679;28;20424;-59
2023/04/25 05:14:37;;;;;;;10.55;3.03;;;;;;;;;;5089111;28;20036;-60
2023/04/25 05:17:06;;;;;;;13.80;3.53;;;;;;;;;;5096501;28;20443;-60
2023/04/25 05:19:32;;;;;;;10.35;3.00;;;;;;;;;;5090512;28;20437;-61
2023/04/25 05:21:58;;;;;;;8.30;2.70;;;;;;;;;;5093987;28;20035;-60
2023/04/25 05:24:25;;;;;;;10.48;3.08;;;;;;;;;;5102633;28;20045;-60
2023/04/25 05:26:51;;;;;;;9.75;2.65;;;;;;;;;;5097762;28;20070;-60
2023/04/25 05:29:17;;;;;;;10.43;2.80;;;;;;;;;;5090570;28;20122;-60
2023/04/25 05:31:44;;;;;;;7.20;2.67;;;;;;;;;;5092254;28;20478;-59
2023/04/25 05:34:10;;;;;;;8.85;2.95;;;;;;;;;;5097270;28;20039;-60
2023/04/25 05:36:36;;;;;;;11.40;2.75;;;;;;;;;;5088972;28;20047;-60
2023/04/25 05:39:04;;;;;;;7.07;2.45;;;;;;;;;;5090096;28;20038;-59
2023/04/25 05:41:30;;;;;;;10.80;2.75;;;;;;;;;;5102960;28;20047;-59
2023/04/25 05:43:56;;;;;;;5.70;2.15;;;;;;;;;;5087045;28;20055;-60
2023/04/25 05:46:22;;;;;;;8.80;3.00;;;;;;;;;;5088227;28;20028;-60
2023/04/25 05:48:48;;;;;;;5.80;2.05;;;;;;;;;;5089114;28;20039;-61
2023/04/25 05:51:14;;;;;;;7.93;2.00;;;;;;;;;;5098669;28;20039;-60
2023/04/25 05:53:40;;;;;;;11.23;1.98;;;;;;;;;;5096536;28;20138;-60
2023/04/25 05:56:07;;;;;;;5.60;2.10;;;;;;;;;;5088138;28;20039;-60
2023/04/25 05:58:33;;;;;;;6.93;1.85;;;;;;;;;;5088147;28;20043;-60
2023/04/25 06:00:59;;;;;;;4.40;1.95;;;;;;;;;;5088928;28;20379;-60
2023/04/25 06:03:25;;;;;;;3.03;1.70;;;;;;;;;;5091071;28;20055;-60
2023/04/25 06:05:52;;;;;;;4.97;1.58;;;;;;;;;;5095661;28;20126;-60
2023/04/25 06:08:18;;;;;;;6.20;1.75;;;;;;;;;;5101573;28;20039;-60
2023/04/25 06:10:44;;;;;;;4.88;1.52;;;;;;;;;;5092088;28;20032;-60
2023/04/25 06:13:11;;;;;;;4.50;1.48;;;;;;;;;;5091793;28;20088;-60
2023/04/25 06:15:37;;;;;;;6.57;2.10;;;;;;;;;;5092193;28;20280;-60
2023/04/25 06:18:03;;;;;;;12.07;2.45;;;;;;;;;;5105449;28;20113;-60
2023/04/25 06:20:29;;;;;;;6.07;2.25;;;;;;;;;;5095164;28;20122;-60
2023/04/25 06:22:55;;;;;;;8.10;1.73;;;;;;;;;;5105202;27;20513;-60
2023/04/25 06:25:21;;;;;;;6.82;2.17;;;;;;;;;;5091573;28;20040;-60
2023/04/25 06:27:48;;;;;;;8.07;2.75;;;;;;;;;;5098344;28;20039;-60
2023/04/25 06:30:15;;;;;;;5.13;1.92;;;;;;;;;;5093041;28;20031;-60
2023/04/25 06:32:41;;;;;;;8.45;1.95;;;;;;;;;;5096688;28;20039;-60
2023/04/25 06:35:07;;;;;;;10.20;2.47;;;;;;;;;;5099020;28;20080;-60
2023/04/25 06:37:33;;;;;;;6.32;2.30;;;;;;;;;;5097900;28;20040;-59
2023/04/25 06:39:59;;;;;;;14.88;3.15;;;;;;;;;;5091793;28;20517;-60
2023/04/25 06:42:25;;;;;;;8.23;2.88;;;;;;;;;;5091489;28;20136;-60
2023/04/25 06:44:51;;;;;;;5.82;2.80;;;;;;;;;;5092242;28;20567;-60
2023/04/25 06:47:17;;;;;;;10.23;3.25;;;;;;;;;;5090155;28;20075;-60
2023/04/25 06:49:44;;;;;;;9.57;2.22;;;;;;;;;;5092187;28;20104;-60
2023/04/25 06:52:10;;;;;;;10.10;2.00;;;;;;;;;;5098496;28;20059;-59
2023/04/25 06:54:36;;;;;;;5.00;1.98;;;;;;;;;;5098912;28;20500;-60
2023/04/25 06:57:03;;;;;;;5.72;1.60;;;;;;;;;;5105727;28;20035;-60
2023/04/25 06:59:29;;;;;;;7.20;1.42;;;;;;;;;;5099307;28;20035;-60
2023/04/25 07:01:55;;;;;;;4.50;1.33;;;;;;;;;;5095759;28;20379;-60
2023/04/25 07:04:21;;;;;;;2.10;1.40;;;;;;;;;;5092915;28;20169;-60
2023/04/25 07:06:48;;;;;;;3.70;0.95;;;;;;;;;;5096649;28;20032;-60
2023/04/25 07:09:14;;;;;;;3.60;1.55;;;;;;;;;;5096804;28;20047;-60
2023/04/25 07:11:40;;;;;;;5.28;1.52;;;;;;;;;;5093933;28;20490;-60
2023/04/25 07:14:06;;;;;;;3.25;1.25;;;;;;;;;;5099781;28;20044;-60
2023/04/25 07:16:32;;;;;;;4.32;1.40;;;;;;;;;;5093501;28;20039;-60
2023/04/25 07:18:59;;;;;;;3.83;1.38;;;;;;;;;;5081284;28;20551;-60
2023/04/25 07:21:26;;;;;;;4.55;1.92;;;;;;;;;;5096926;28;20051;-60
2023/04/25 07:23:52;;;;;;;5.03;1.88;;;;;;;;;;5089054;28;20078;-60
2023/04/25 07:26:18;;;;;;;6.25;2.10;;;;;;;;;;5091116;28;20040;-60
2023/04/25 07:28:44;;;;;;;8.95;2.65;;;;;;;;;;5098064;28;20043;-60
2023/04/25 07:31:10;;;;;;;5.28;1.80;;;;;;;;;;5093508;28;20162;-60
2023/04/25 07:33:36;;;;;;;4.32;1.80;;;;;;;;;;5090732;28;20127;-59
2023/04/25 07:36:03;;;;;;;5.78;1.98;;;;;;;;;;5094296;28;20043;-60
2023/04/25 07:38:29;;;;;;;8.15;1.98;;;;;;;;;;5091022;28;20076;-60
2023/04/25 07:40:55;;;;;;;6.85;2.00;;;;;;;;;;5091886;28;20499;-60
2023/04/25 07:43:21;;;;;;;4.55;2.10;;;;;;;;;;5090404;28;20056;-60
2023/04/25 07:45:47;;;;;;;9.15;2.20;;;;;;;;;;5090858;28;20166;-60
2023/04/25 07:48:18;;;;;;;8.85;2.90;;;;;;;;;;5090739;28;20032;-60
2023/04/25 07:50:45;;;;;;;7.40;2.17;;;;;;;;;;5101007;28;20831;-60
2023/04/25 07:53:11;;;;;;;6.35;2.15;;;;;;;;;;5099820;28;20039;-60
2023/04/25 07:55:39;;;;;;;4.22;2.10;;;;;;;;;;5093757;28;20544;-60
2023/04/25 07:58:09;;;;;;;6.68;2.58;;;;;;;;;;5090136;28;20539;-60
2023/04/25 08:00:35;;;;;;;3.92;1.60;;;;;;;;;;5091459;28;20063;-60
2023/04/25 08:03:02;;;;;;;4.97;1.90;;;;;;;;;;5093082;28;20122;-60
2023/04/25 08:05:28;;;;;;;8.02;2.42;;;;;;;;;;5094825;28;20040;-60
2023/04/25 08:07:56;;;;;;;7.95;2.47;;;;;;;;;;5092029;28;20050;-60
2023/04/25 08:10:23;;;;;;;6.55;2.53;;;;;;;;;;5097320;28;20043;-61
2023/04/25 08:12:49;;;;;;;6.88;2.00;;;;;;;;;;5096232;28;20168;-60
2023/04/25 08:15:15;;;;;;;6.85;1.35;;;;;;;;;;5088727;28;20047;-60
2023/04/25 08:17:43;;;;;;;4.05;1.40;;;;;;;;;;5099776;28;20040;-60
2023/04/25 08:20:10;;;;;;;7.05;1.65;;;;;;;;;;5100494;28;20051;-60
2023/04/25 08:22:36;;;;;;;5.72;2.08;;;;;;;;;;5093816;28;20044;-60
2023/04/25 08:25:03;;;;;;;5.07;1.85;;;;;;;;;;5089333;28;20024;-60
2023/04/25 08:27:29;;;;;;;4.80;2.08;;;;;;;;;;5088361;28;20032;-60
2023/04/25 08:29:56;;;;;;;6.10;2.00;;;;;;;;;;5090260;28;20028;-60
2023/04/25 08:32:22;;;;;;;6.43;2.22;;;;;;;;;;5091812;28;20078;-60
2023/04/25 08:34:48;;;;;;;8.43;2.30;;;;;;;;;;5092297;28;20532;-61
2023/04/25 08:37:14;;;;;;;4.43;1.75;;;;;;;;;;5101364;28;20127;-60
2023/04/25 08:39:41;;;;;;;9.52;2.47;;;;;;;;;;5090505;28;20086;-60
2023/04/25 08:42:08;;;;;;;4.15;2.10;;;;;;;;;;5094832;28;20050;-60
2023/04/25 08:44:35;;;;;;;11.50;3.05;;;;;;;;;;5090350;28;20090;-60
2023/04/25 08:47:05;;;;;;;11.02;2.47;;;;;;;;;;5088717;28;20044;-60
2023/04/25 08:49:32;;;;;;;7.80;2.85;;;;;;;;;;5092086;28;20044;-60
2023/04/25 08:52:00;;;;;;;9.40;1.85;;;;;;;;;;5095587;28;20075;-60
2023/04/25 08:54:28;;;;;;;5.13;2.28;;;;;;;;;;5096230;28;20597;-60
2023/04/25 08:56:55;;;;;;;3.58;1.67;;;;;;;;;;5101966;28;20047;-60
2023/04/25 08:59:23;;;;;;;10.80;2.15;;;;;;;;;;5095507;28;20040;-60
2023/04/25 09:01:50;;;;;;;5.75;1.73;;;;;;;;;;5090261;28;20054;-60
2023/04/25 09:04:16;;;;;;;5.85;2.20;;;;;;;;;;5093276;28;20042;-60
2023/04/25 09:06:42;;;;;;;5.20;1.75;;;;;;;;;;5107187;28;20043;-60
2023/04/25 09:09:10;;;;;;;8.48;1.90;;;;;;;;;;5093868;28;20040;-59
2023/04/25 09:11:37;;;;;;;11.63;2.10;;;;;;;;;;5099388;28;20650;-60
2023/04/25 09:14:29;;;;;;;5.60;2.45;;;;;;;;;;5094202;28;20036;-60
2023/04/25 09:16:55;;;;;;;12.97;2.70;;;;;;;;;;5094315;28;20536;-60
2023/04/25 09:19:25;;;;;;;3.75;1.75;;;;;;;;;;5098919;28;20286;-61
2023/04/25 09:21:54;;;;;;;13.68;1.90;;;;;;;;;;5102521;28;20111;-60
2023/04/25 09:24:33;;;;;;;9.20;2.40;;;;;;;;;;5088862;28;20040;-60
2023/04/25 09:27:01;;;;;;;4.63;2.00;;;;;;;;;;5099448;28;20046;-60
2023/04/25 09:29:34;;;;;;;8.00;2.63;;;;;;;;;;5090412;28;20040;-60
2023/04/25 09:32:19;;;;;;;5.55;2.00;;;;;;;;;;5089825;28;20032;-60
2023/04/25 09:34:50;;;;;;;6.22;2.00;;;;;;;;;;5089073;28;20516;-60
2023/04/25 09:37:21;;;;;;;8.15;2.05;;;;;;;;;;5093126;28;20093;-61
2023/04/25 09:39:48;;;;;;;12.57;2.33;;;;;;;;;;5092343;28;20093;-60
2023/04/25 09:42:15;;;;;;;4.18;2.13;;;;;;;;;;5093311;28;20031;-60
2023/04/25 09:44:45;;;;;;;8.07;2.00;;;;;;;;;;5092177;28;20475;-60
2023/04/25 09:47:12;;;;;;;5.45;1.90;;;;;;;;;;5099999;28;20032;-60
2023/04/25 09:49:42;;;;;;;8.20;2.05;;;;;;;;;;5091918;28;20266;-60
2023/04/25 09:52:09;;;;;;;6.53;2.08;;;;;;;;;;5099864;28;20035;-60
2023/04/25 09:54:35;;;;;;;9.07;2.28;;;;;;;;;;5090673;28;20048;-59
2023/04/25 09:57:11;;;;;;;11.60;2.40;;;;;;;;;;5090779;28;20173;-60
2023/04/25 09:59:39;;;;;;;11.68;2.67;;;;;;;;;;5092358;28;20047;-60
2023/04/25 10:02:06;;;;;;;6.28;2.10;;;;;;;;;;5093713;28;20169;-60
2023/04/25 10:04:35;;;;;;;5.82;2.53;;;;;;;;;;5092692;28;20075;-60
2023/04/25 10:07:02;;;;;;;6.82;2.08;;;;;;;;;;5096365;28;20038;-60
2023/04/25 10:09:32;;;;;;;9.20;2.85;;;;;;;;;;5095673;28;20500;-61
2023/04/25 10:11:58;;;;;;;3.35;1.85;;;;;;;;;;5090794;28;20040;-60
2023/04/25 10:14:25;;;;;;;7.28;2.67;;;;;;;;;;5092874;28;20056;-60
2023/04/25 10:16:53;;;;;;;8.73;2.40;;;;;;;;;;5100377;28;20112;-60
2023/04/25 10:19:20;;;;;;;7.13;2.10;;;;;;;;;;5110599;28;20161;-60
2023/04/25 10:21:52;;;;;;;10.20;2.22;;;;;;;;;;5095225;28;20130;-60
2023/04/25 10:24:19;;;;;;;5.03;2.37;;;;;;;;;;5091032;28;20040;-60
2023/04/25 10:26:46;;;;;;;11.63;2.88;;;;;;;;;;5091953;28;20324;-60
2023/04/25 10:29:12;;;;;;;7.35;3.05;;;;;;;;;;5100916;28;20075;-60
2023/04/25 10:31:46;;;;;;;6.93;2.92;;;;;;;;;;5097997;28;20058;-60
2023/04/25 10:34:12;;;;;;;12.00;2.67;;;;;;;;;;5089980;28;20055;-60
2023/04/25 10:36:39;;;;;;;6.82;2.35;;;;;;;;;;5091528;28;20052;-60
2023/04/25 10:39:07;;;;;;;7.30;2.72;;;;;;;;;;5089944;28;20044;-61
2023/04/25 10:41:45;;;;;;;6.88;2.13;;;;;;;;;;5090307;28;20039;-60
2023/04/25 10:44:11;;;;;;;6.88;2.15;;;;;;;;;;5095123;28;20135;-61
2023/04/25 10:46:38;;;;;;;8.10;2.28;;;;;;;;;;5095796;28;20405;-60
2023/04/25 10:49:04;;;;;;;7.53;2.13;;;;;;;;;;5098058;28;20032;-59
2023/04/25 10:51:34;;;;;;;10.57;4.03;;;;;;;;;;5100122;28;20046;-60
2023/04/25 10:54:07;;;;;;;6.13;1.90;;;;;;;;;;5092939;28;20040;-60
2023/04/25 10:56:35;;;;;;;7.72;2.33;;;;;;;;;;5090272;28;20047;-60
2023/04/25 10:59:21;;;;;;;6.50;1.63;;;;;;;;;;5090889;28;20040;-60
2023/04/25 11:01:49;;;;;;;4.00;2.40;;;;;;;;;;5092033;28;20131;-61
2023/04/25 11:04:23;;;;;;;5.13;2.10;;;;;;;;;;5095183;28;20090;-60
2023/04/25 11:06:59;;;;;;;8.23;2.00;;;;;;;;;;5093787;28;20039;-60
2023/04/25 11:09:26;;;;;;;8.68;2.20;;;;;;;;;;5102229;28;20028;-61
2023/04/25 11:11:55;;;;;;;6.78;2.42;;;;;;;;;;5092536;28;20054;-60
2023/04/25 11:14:22;;;;;;;7.70;2.05;;;;;;;;;;5093092;28;20043;-60
2023/04/25 11:16:48;;;;;;;10.75;2.92;;;;;;;;;;5096744;28;20445;-59
2023/04/25 11:19:14;;;;;;;4.93;1.52;;;;;;;;;;5098597;27;20043;-59
2023/04/25 11:21:40;;;;;;;4.95;1.63;;;;;;;;;;5094333;28;20512;-59
2023/04/25 11:24:06;;;;;;;2.58;1.30;;;;;;;;;;5090264;28;20090;-60
2023/04/25 11:26:33;;;;;;;9.95;2.38;;;;;;;;;;5088445;28;20040;-60
2023/04/25 11:29:02;;;;;;;3.88;2.03;;;;;;;;;;5094078;28;20034;-60
2023/04/25 11:31:29;;;;;;;7.28;2.85;;;;;;;;;;5089873;28;20040;-60
2023/04/25 11:33:59;;;;;;;5.30;1.65;;;;;;;;;;5091486;28;20062;-60
2023/04/25 11:36:26;;;;;;;9.20;2.28;;;;;;;;;;5097462;28;20040;-59
2023/04/25 11:38:53;;;;;;;5.75;2.63;;;;;;;;;;5090119;28;20572;-60
2023/04/25 11:41:21;;;;;;;5.07;1.80;;;;;;;;;;5090653;28;20032;-59
2023/04/25 11:43:48;;;;;;;12.52;2.78;;;;;;;;;;5092901;28;20104;-60
2023/04/25 11:46:15;;;;;;;6.55;2.10;;;;;;;;;;5090824;28;20092;-60
2023/04/25 11:48:42;;;;;;;6.63;1.83;;;;;;;;;;5090263;28;20036;-59
2023/04/25 11:51:09;;;;;;;5.55;1.90;;;;;;;;;;5092028;28;20064;-60
2023/04/25 11:53:36;;;;;;;4.25;1.17;;;;;;;;;;5089205;28;20067;-59
2023/04/25 11:56:02;;;;;;;6.32;1.65;;;;;;;;;;5089784;28;20051;-60
2023/04/25 11:58:28;;;;;;;8.23;2.20;;;;;;;;;;5092626;28;20153;-59
2023/04/25 12:00:58;;;;;;;8.05;2.60;;;;;;;;;;5088627;27;20040;-59
2023/04/25 12:03:27;;;;;;;8.65;2.05;;;;;;;;;;5089815;28;20134;-59
2023/04/25 12:05:53;;;;;;;7.80;2.72;;;;;;;;;;5090733;28;20165;-60
2023/04/25 12:08:19;;;;;;;6.80;2.13;;;;;;;;;;5088679;28;20075;-60
2023/04/25 12:10:46;;;;;;;11.45;2.55;;;;;;;;;;5087657;28;20043;-59
2023/04/25 12:13:20;;;;;;;9.43;3.42;;;;;;;;;;5091842;28;20116;-60
2023/04/25 12:15:46;;;;;;;8.75;2.00;;;;;;;;;;5089021;28;20035;-59
2023/04/25 12:18:12;;;;;;;13.70;2.42;;;;;;;;;;5099810;28;20036;-60
2023/04/25 12:20:38;;;;;;;6.07;2.25;;;;;;;;;;5103533;28;20485;-60
2023/04/25 12:23:08;;;;;;;8.73;2.40;;;;;;;;;;5095064;28;20043;-60
2023/04/25 12:25:35;;;;;;;6.55;1.60;;;;;;;;;;5089212;28;20044;-60
2023/04/25 12:28:11;;;;;;;11.23;2.10;;;;;;;;;;5095022;28;20405;-60
2023/04/25 12:30:56;;;;;;;5.93;2.00;;;;;;;;;;5089033;28;20101;-60
2023/04/25 12:33:22;;;;;;;6.38;2.00;;;;;;;;;;5088149;28;20457;-60
2023/04/25 12:35:48;;;;;;;8.90;2.30;;;;;;;;;;5087887;28;20051;-60
2023/04/25 12:38:31;;;;;;;4.40;1.83;;;;;;;;;;5091450;28;20040;-60
2023/04/25 12:41:00;;;;;;;8.77;2.75;;;;;;;;;;5092834;28;20409;-59
2023/04/25 12:43:26;;;;;;;9.55;2.75;;;;;;;;;;5092149;28;20079;-60
2023/04/25 12:45:53;;;;;;;8.48;2.70;;;;;;;;;;5089979;28;20432;-61
2023/04/25 12:48:20;;;;;;;5.68;2.00;;;;;;;;;;5088962;28;20067;-60
2023/04/25 12:50:49;;;;;;;4.32;1.45;;;;;;;;;;5087246;28;20040;-60
2023/04/25 12:53:16;;;;;;;5.15;1.88;;;;;;;;;;5094462;28;20552;-59
2023/04/25 12:55:42;;;;;;;7.97;2.53;;;;;;;;;;5084736;28;20505;-60
2023/04/25 12:58:09;;;;;;;6.03;2.28;;;;;;;;;;5087708;28;20055;-59
2023/04/25 13:00:35;;;;;;;6.03;2.42;;;;;;;;;;5088749;28;20055;-60
2023/04/25 13:03:02;;;;;;;6.95;2.00;;;;;;;;;;5093337;28;20080;-60
2023/04/25 13:05:28;;;;;;;5.63;2.28;;;;;;;;;;5095017;28;20040;-60
2023/04/25 13:07:55;;;;;;;6.63;2.67;;;;;;;;;;5088107;28;20097;-60
2023/04/25 13:10:21;;;;;;;7.75;2.20;;;;;;;;;;5089255;28;20085;-60
2023/04/25 13:12:47;;;;;;;8.43;2.47;;;;;;;;;;5105064;28;20038;-60
2023/04/25 13:15:15;;;;;;;6.28;2.22;;;;;;;;;;5095577;28;20057;-60
2023/04/25 13:17:41;;;;;;;6.75;2.38;;;;;;;;;;5103680;28;20047;-59
2023/04/25 13:20:09;;;;;;;6.68;2.72;;;;;;;;;;5096006;28;20063;-59
2023/04/25 13:22:39;;;;;;;8.80;2.08;;;;;;;;;;5094581;28;20076;-59
2023/04/25 13:25:06;;;;;;;5.32;2.13;;;;;;;;;;5094524;28;20048;-60
2023/04/25 13:27:33;;;;;;;12.35;2.70;;;;;;;;;;5099491;28;20082;-60
2023/04/25 13:30:07;;;;;;;6.18;2.25;;;;;;;;;;5093251;28;20505;-59
2023/04/25 13:32:39;;;;;;;8.38;2.70;;;;;;;;;;5096740;28;20416;-59
2023/04/25 13:35:15;;;;;;;8.70;2.60;;;;;;;;;;5092546;28;20824;-59
2023/04/25 13:37:41;;;;;;;9.05;2.70;;;;;;;;;;5095723;28;20042;-60
2023/04/25 13:40:09;;;;;;;6.78;3.00;;;;;;;;;;5091414;28;20043;-59
2023/04/25 13:42:36;;;;;;;7.10;2.70;;;;;;;;;;5095540;28;20051;-60
2023/04/25 13:45:02;;;;;;;25.33;4.60;;;;;;;;;;5107280;28;20134;-60
2023/04/25 13:47:29;;;;;;;13.30;2.38;;;;;;;;;;5094618;28;20055;-59
2023/04/25 13:49:56;;;;;;;6.90;2.20;;;;;;;;;;5091253;28;20513;-59
2023/04/25 13:52:24;;;;;;;3.47;1.90;;;;;;;;;;5101856;28;20032;-59
2023/04/25 13:54:50;;;;;;;6.80;1.90;;;;;;;;;;5092288;28;20401;-59
2023/04/25 13:57:17;;;;;;;4.82;2.05;;;;;;;;;;5094934;28;20059;-60
2023/04/25 13:59:43;;;;;;;9.00;2.30;;;;;;;;;;5109935;28;20032;-60
2023/04/25 14:02:09;;;;;;;5.90;2.10;;;;;;;;;;5094116;28;20146;-60
2023/04/25 14:04:35;;;;;;;5.05;1.80;;;;;;;;;;5093493;28;20404;-60
2023/04/25 14:07:03;;;;;;;7.75;1.98;;;;;;;;;;5091832;28;20094;-60
2023/04/25 14:09:29;;;;;;;8.98;1.98;;;;;;;;;;5097268;28;20115;-60
2023/04/25 14:11:56;;;;;;;4.70;1.63;;;;;;;;;;5094108;28;20521;-60
2023/04/25 14:14:23;;;;;;;5.70;1.77;;;;;;;;;;5096103;28;20043;-60
2023/04/25 14:16:50;;;;;;;9.02;2.95;;;;;;;;;;5094492;28;20439;-59
2023/04/25 14:19:19;;;;;;;5.25;2.30;;;;;;;;;;5110579;28;20518;-60
2023/04/25 14:21:46;;;;;;;7.22;1.80;;;;;;;;;;5094518;27;20039;-60
2023/04/25 14:24:12;;;;;;;4.93;1.77;;;;;;;;;;5090947;28;20055;-60
2023/04/25 14:26:38;;;;;;;12.13;2.55;;;;;;;;;;5092128;28;20032;-59
2023/04/25 14:29:08;;;;;;;13.35;2.78;;;;;;;;;;5092576;28;20398;-60
2023/04/25 14:31:34;;;;;;;7.82;2.35;;;;;;;;;;5094402;28;20040;-60
2023/04/25 14:34:01;;;;;;;10.23;3.10;;;;;;;;;;5097325;28;20047;-60
2023/04/25 14:36:30;;;;;;;7.30;2.65;;;;;;;;;;5100123;28;20043;-60
2023/04/25 14:38:57;;;;;;;9.35;3.45;;;;;;;;;;5098252;28;20493;-59